createdAt,value
2023-05-10T00:00:49.623Z,6.93
2023-05-10T00:01:53.889Z,6.95
2023-05-10T00:02:58.183Z,6.95
2023-05-10T00:04:02.481Z,6.93
2023-05-10T00:05:06.724Z,6.90
2023-05-10T00:06:10.997Z,6.86
2023-05-10T00:07:15.230Z,6.86
2023-05-10T00:08:19.526Z,6.85
2023-05-10T00:09:23.871Z,6.86
2023-05-10T00:10:28.118Z,6.86
2023-05-10T00:11:32.468Z,6.86
2023-05-10T00:12:48.754Z,6.86
2023-05-10T00:13:51.264Z,6.85
2023-05-10T00:14:55.467Z,6.83
2023-05-10T00:15:59.849Z,6.79
2023-05-10T00:17:04.107Z,6.79
2023-05-10T00:18:08.498Z,6.78
2023-05-10T00:19:12.645Z,6.77
2023-05-10T00:20:17.231Z,6.76
2023-05-10T00:21:21.160Z,6.77
2023-05-10T00:22:25.478Z,6.78
2023-05-10T00:23:29.852Z,6.77
2023-05-10T00:24:34.132Z,6.77
2023-05-10T00:25:38.361Z,6.76
2023-05-10T00:26:42.703Z,6.75
2023-05-10T00:27:46.966Z,6.74
2023-05-10T00:28:51.253Z,6.73
2023-05-10T00:29:55.517Z,6.73
2023-05-10T00:30:59.790Z,6.74
2023-05-10T00:32:04.275Z,6.71
2023-05-10T00:33:22.470Z,6.69
2023-05-10T00:34:25.732Z,6.66
2023-05-10T00:35:29.967Z,6.65
2023-05-10T00:36:34.156Z,6.64
2023-05-10T00:37:38.487Z,6.65
2023-05-10T00:38:42.786Z,6.61
2023-05-10T00:39:47.041Z,6.61
2023-05-10T00:40:51.290Z,6.62
2023-05-10T00:41:55.543Z,6.61
2023-05-10T00:42:59.955Z,6.60
2023-05-10T00:44:04.132Z,6.59
2023-05-10T00:45:08.385Z,6.57
2023-05-10T00:46:12.733Z,6.60
2023-05-10T00:47:16.953Z,6.61
2023-05-10T00:48:21.288Z,6.63
2023-05-10T00:49:25.512Z,6.62
2023-05-10T00:50:29.729Z,6.63
2023-05-10T00:51:34.005Z,6.62
2023-05-10T00:52:38.257Z,6.63
2023-05-10T00:53:42.532Z,6.62
2023-05-10T00:54:46.825Z,6.64
2023-05-10T00:55:51.101Z,6.65
2023-05-10T00:56:55.400Z,6.66
2023-05-10T00:57:59.653Z,6.67
2023-05-10T00:59:03.956Z,6.67
2023-05-10T01:00:08.391Z,6.68
2023-05-10T01:01:12.563Z,6.71
2023-05-10T01:02:16.852Z,6.72
2023-05-10T01:03:21.283Z,6.71
2023-05-10T01:04:25.547Z,6.72
2023-05-10T01:05:29.710Z,6.74
2023-05-10T01:06:34.062Z,6.74
2023-05-10T01:07:38.303Z,6.74
2023-05-10T01:08:42.554Z,6.75
2023-05-10T01:09:46.856Z,6.75
2023-05-10T01:10:51.121Z,6.74
2023-05-10T01:11:55.438Z,6.76
2023-05-10T01:12:59.735Z,6.75
2023-05-10T01:14:04.044Z,6.76
2023-05-10T01:15:08.218Z,6.75
2023-05-10T01:16:12.730Z,6.76
2023-05-10T01:17:16.858Z,6.77
2023-05-10T01:18:21.136Z,6.77
2023-05-10T01:19:25.457Z,6.76
2023-05-10T01:20:43.651Z,6.77
2023-05-10T01:21:47.084Z,6.78
2023-05-10T01:22:51.247Z,6.77
2023-05-10T01:23:55.500Z,6.76
2023-05-10T01:24:59.758Z,6.77
2023-05-10T01:26:04.108Z,6.77
2023-05-10T01:27:08.476Z,6.76
2023-05-10T01:28:12.644Z,6.77
2023-05-10T01:29:16.961Z,6.76
2023-05-10T01:31:25.653Z,6.75
2023-05-10T01:32:29.863Z,6.75
2023-05-10T01:33:34.079Z,6.76
2023-05-10T01:34:38.391Z,6.76
2023-05-10T01:35:42.639Z,6.76
2023-05-10T01:36:46.956Z,6.77
2023-05-10T01:37:51.136Z,6.77
2023-05-10T01:38:55.478Z,6.77
2023-05-10T01:39:59.794Z,6.78
2023-05-10T01:41:04.054Z,6.80
2023-05-10T01:42:08.312Z,6.78
2023-05-10T01:43:12.546Z,6.76
2023-05-10T01:44:16.818Z,6.77
2023-05-10T01:45:21.119Z,6.77
2023-05-10T01:46:25.449Z,6.73
2023-05-10T01:47:29.740Z,6.72
2023-05-10T01:48:33.946Z,6.71
2023-05-10T01:49:38.287Z,6.70
2023-05-10T01:50:42.622Z,6.69
2023-05-10T01:51:46.799Z,6.69
2023-05-10T01:52:51.050Z,6.69
2023-05-10T01:53:55.186Z,6.69
2023-05-10T01:54:59.604Z,6.68
2023-05-10T01:56:03.908Z,6.68
2023-05-10T01:57:08.183Z,6.69
2023-05-10T01:58:12.544Z,6.67
2023-05-10T01:59:16.809Z,6.70
2023-05-10T02:00:21.133Z,6.69
2023-05-10T02:01:25.492Z,6.68
2023-05-10T02:02:29.774Z,6.69
2023-05-10T02:03:34.038Z,6.70
2023-05-10T02:04:38.211Z,6.70
2023-05-10T02:05:42.557Z,6.70
2023-05-10T02:06:46.788Z,6.70
2023-05-10T02:07:51.067Z,6.69
2023-05-10T02:08:55.341Z,6.71
2023-05-10T02:09:59.642Z,6.73
2023-05-10T02:11:03.879Z,6.73
2023-05-10T02:12:08.250Z,6.73
2023-05-10T02:13:12.604Z,6.75
2023-05-10T02:14:16.776Z,6.75
2023-05-10T02:15:21.140Z,6.73
2023-05-10T02:16:25.468Z,6.71
2023-05-10T02:17:29.718Z,6.70
2023-05-10T02:18:34.091Z,6.71
2023-05-10T02:19:38.257Z,6.71
2023-05-10T02:20:42.530Z,6.70
2023-05-10T02:21:46.864Z,6.69
2023-05-10T02:22:51.165Z,6.68
2023-05-10T02:23:56.417Z,6.67
2023-05-10T02:25:00.265Z,6.66
2023-05-10T02:26:04.565Z,6.65
2023-05-10T02:27:08.810Z,6.65
2023-05-10T02:28:13.079Z,6.67
2023-05-10T02:29:17.289Z,6.65
2023-05-10T02:30:21.588Z,6.63
2023-05-10T02:31:25.920Z,6.66
2023-05-10T02:32:30.173Z,6.65
2023-05-10T02:33:34.511Z,6.65
2023-05-10T02:34:38.664Z,6.64
2023-05-10T02:35:43.009Z,6.64
2023-05-10T02:36:47.327Z,6.63
2023-05-10T02:37:51.509Z,6.64
2023-05-10T02:38:55.747Z,6.64
2023-05-10T02:40:00.080Z,6.63
2023-05-10T02:41:04.231Z,6.64
2023-05-10T02:42:08.476Z,6.64
2023-05-10T02:43:12.739Z,6.65
2023-05-10T02:44:17.030Z,6.63
2023-05-10T02:45:21.369Z,6.66
2023-05-10T02:46:25.615Z,6.65
2023-05-10T02:47:29.923Z,6.66
2023-05-10T02:48:34.111Z,6.67
2023-05-10T02:49:38.296Z,6.67
2023-05-10T02:50:42.578Z,6.67
2023-05-10T02:51:46.835Z,6.67
2023-05-10T02:52:51.174Z,6.66
2023-05-10T02:53:55.391Z,6.67
2023-05-10T02:54:59.691Z,6.67
2023-05-10T02:56:03.898Z,6.68
2023-05-10T02:57:08.311Z,6.67
2023-05-10T02:58:12.494Z,6.68
2023-05-10T02:59:16.752Z,6.71
2023-05-10T03:00:21.013Z,6.72
2023-05-10T03:01:25.189Z,6.73
2023-05-10T03:02:29.457Z,6.73
2023-05-10T03:03:33.696Z,6.73
2023-05-10T03:04:38.032Z,6.75
2023-05-10T03:05:42.277Z,6.75
2023-05-10T03:06:46.525Z,6.75
2023-05-10T03:07:50.779Z,6.73
2023-05-10T03:08:55.020Z,6.73
2023-05-10T03:09:59.201Z,6.74
2023-05-10T03:11:03.612Z,6.77
2023-05-10T03:12:07.790Z,6.80
2023-05-10T03:13:12.111Z,6.80
2023-05-10T03:14:16.322Z,6.82
2023-05-10T03:15:20.675Z,6.81
2023-05-10T03:16:24.905Z,6.81
2023-05-10T03:17:29.147Z,6.82
2023-05-10T03:18:33.372Z,6.82
2023-05-10T03:19:37.623Z,6.83
2023-05-10T03:20:41.898Z,6.84
2023-05-10T03:21:46.172Z,6.85
2023-05-10T03:22:50.254Z,6.85
2023-05-10T03:23:54.602Z,6.86
2023-05-10T03:24:58.872Z,6.87
2023-05-10T03:26:03.148Z,6.88
2023-05-10T03:27:07.377Z,6.89
2023-05-10T03:28:11.819Z,6.91
2023-05-10T03:29:15.981Z,6.93
2023-05-10T03:30:20.221Z,6.95
2023-05-10T03:31:24.564Z,6.97
2023-05-10T03:32:28.886Z,6.99
2023-05-10T03:33:33.078Z,7.01
2023-05-10T03:34:37.505Z,7.02
2023-05-10T03:35:41.849Z,7.04
2023-05-10T03:36:46.149Z,7.05
2023-05-10T03:37:50.401Z,7.06
2023-05-10T03:38:54.665Z,7.07
2023-05-10T03:39:58.776Z,7.08
2023-05-10T03:41:03.082Z,7.08
2023-05-10T03:42:07.342Z,7.10
2023-05-10T03:43:11.520Z,7.11
2023-05-10T03:44:15.909Z,7.12
2023-05-10T03:45:20.072Z,7.12
2023-05-10T03:46:24.450Z,7.14
2023-05-10T03:47:34.733Z,7.15
2023-05-10T03:48:37.549Z,7.16
2023-05-10T03:49:41.717Z,7.18
2023-05-10T03:50:45.963Z,7.19
2023-05-10T03:51:50.208Z,7.20
2023-05-10T03:52:54.938Z,7.22
2023-05-10T03:53:58.753Z,7.22
2023-05-10T03:55:03.024Z,7.23
2023-05-10T03:56:07.271Z,7.24
2023-05-10T03:57:11.645Z,7.25
2023-05-10T03:58:15.854Z,7.26
2023-05-10T03:59:20.217Z,7.28
2023-05-10T04:00:24.504Z,7.29
2023-05-10T04:01:28.656Z,7.29
2023-05-10T04:02:33.168Z,7.30
2023-05-10T04:03:37.306Z,7.31
2023-05-10T04:04:41.519Z,7.31
2023-05-10T04:05:45.733Z,7.33
2023-05-10T04:06:50.157Z,7.36
2023-05-10T04:07:54.342Z,7.36
2023-05-10T04:08:58.587Z,7.37
2023-05-10T04:10:02.919Z,7.38
2023-05-10T04:11:07.115Z,7.41
2023-05-10T04:12:11.447Z,7.42
2023-05-10T04:13:15.691Z,7.44
2023-05-10T04:14:19.798Z,7.46
2023-05-10T04:15:24.034Z,7.45
2023-05-10T04:16:28.379Z,7.46
2023-05-10T04:17:35.704Z,7.48
2023-05-10T04:18:38.961Z,7.48
2023-05-10T04:19:43.256Z,7.51
2023-05-10T04:20:47.527Z,7.53
2023-05-10T04:21:51.780Z,7.54
2023-05-10T04:22:56.023Z,7.55
2023-05-10T04:24:00.308Z,7.57
2023-05-10T04:25:04.633Z,7.59
2023-05-10T04:26:08.880Z,7.59
2023-05-10T04:27:13.225Z,7.61
2023-05-10T04:28:17.477Z,7.63
2023-05-10T04:29:21.828Z,7.63
2023-05-10T04:30:26.047Z,7.65
2023-05-10T04:31:30.311Z,7.66
2023-05-10T04:32:34.536Z,7.69
2023-05-10T04:33:38.801Z,7.70
2023-05-10T04:34:43.012Z,7.68
2023-05-10T04:35:47.300Z,7.70
2023-05-10T04:36:51.570Z,7.75
2023-05-10T04:37:55.804Z,7.76
2023-05-10T04:39:00.103Z,7.74
2023-05-10T04:40:04.416Z,7.80
2023-05-10T04:41:08.635Z,7.81
2023-05-10T04:42:12.889Z,7.80
2023-05-10T04:43:17.168Z,7.82
2023-05-10T04:44:21.518Z,7.80
2023-05-10T04:45:25.782Z,7.81
2023-05-10T04:46:30.168Z,7.83
2023-05-10T04:47:34.455Z,7.82
2023-05-10T04:48:38.674Z,7.83
2023-05-10T04:49:42.943Z,7.89
2023-05-10T04:50:47.249Z,7.90
2023-05-10T04:51:51.505Z,7.90
2023-05-10T04:52:55.780Z,7.90
2023-05-10T04:54:05.865Z,7.92
2023-05-10T04:55:04.302Z,7.93
2023-05-10T04:56:08.662Z,7.94
2023-05-10T04:57:12.947Z,7.92
2023-05-10T04:58:17.266Z,7.91
2023-05-10T04:59:21.569Z,7.93
2023-05-10T05:00:25.825Z,7.96
2023-05-10T05:01:30.255Z,7.97
2023-05-10T05:02:34.565Z,7.92
2023-05-10T05:03:38.842Z,7.90
2023-05-10T05:04:43.109Z,7.91
2023-05-10T05:05:47.343Z,7.96
2023-05-10T05:06:53.770Z,7.97
2023-05-10T05:07:55.968Z,8.02
2023-05-10T05:09:00.253Z,8.04
2023-05-10T05:10:04.600Z,8.07
2023-05-10T05:11:08.831Z,8.08
2023-05-10T05:12:13.169Z,8.02
2023-05-10T05:13:17.436Z,7.97
2023-05-10T05:14:21.690Z,7.95
2023-05-10T05:15:25.988Z,7.98
2023-05-10T05:16:30.328Z,7.96
2023-05-10T05:17:34.643Z,7.92
2023-05-10T05:18:38.882Z,7.95
2023-05-10T05:19:43.226Z,8.00
2023-05-10T05:20:47.462Z,8.03
2023-05-10T05:21:51.753Z,8.07
2023-05-10T05:22:56.010Z,8.05
2023-05-10T05:24:00.321Z,8.06
2023-05-10T05:25:04.654Z,8.04
2023-05-10T05:26:09.011Z,8.05
2023-05-10T05:27:13.261Z,8.09
2023-05-10T05:28:17.575Z,8.11
2023-05-10T05:29:21.849Z,8.11
2023-05-10T05:30:26.120Z,8.11
2023-05-10T05:31:30.425Z,8.10
2023-05-10T05:32:34.745Z,8.12
2023-05-10T05:33:38.987Z,8.22
2023-05-10T05:34:43.386Z,8.21
2023-05-10T05:35:47.611Z,8.23
2023-05-10T05:36:51.923Z,8.21
2023-05-10T05:37:56.220Z,8.21
2023-05-10T05:39:00.577Z,8.27
2023-05-10T05:40:04.809Z,8.24
2023-05-10T05:41:09.238Z,8.22
2023-05-10T05:42:13.488Z,8.24
2023-05-10T05:43:17.769Z,8.21
2023-05-10T05:44:22.073Z,8.18
2023-05-10T05:45:26.339Z,8.21
2023-05-10T05:46:30.652Z,8.19
2023-05-10T05:47:34.943Z,8.19
2023-05-10T05:48:39.256Z,8.23
2023-05-10T05:49:43.554Z,8.29
2023-05-10T05:50:47.913Z,8.29
2023-05-10T05:51:52.263Z,8.31
2023-05-10T05:52:56.614Z,8.31
2023-05-10T05:54:00.877Z,8.31
2023-05-10T05:55:05.166Z,8.35
2023-05-10T05:56:09.488Z,8.40
2023-05-10T05:57:13.834Z,8.45
2023-05-10T05:58:18.149Z,8.51
2023-05-10T05:59:22.451Z,8.55
2023-05-10T06:00:26.838Z,8.52
2023-05-10T06:01:31.177Z,8.49
2023-05-10T06:02:35.590Z,8.54
2023-05-10T06:03:39.904Z,8.57
2023-05-10T06:04:44.901Z,8.49
2023-05-10T06:05:48.453Z,8.52
2023-05-10T06:06:52.825Z,8.55
2023-05-10T06:07:57.079Z,8.51
2023-05-10T06:09:01.375Z,8.49
2023-05-10T06:10:05.681Z,8.49
2023-05-10T06:11:10.081Z,8.60
2023-05-10T06:12:14.342Z,8.64
2023-05-10T06:13:18.728Z,8.60
2023-05-10T06:14:22.842Z,8.58
2023-05-10T06:15:27.261Z,8.66
2023-05-10T06:16:31.794Z,8.73
2023-05-10T06:17:36.053Z,8.81
2023-05-10T06:18:40.382Z,8.86
2023-05-10T06:19:44.804Z,8.91
2023-05-10T06:20:49.077Z,8.90
2023-05-10T06:21:54.057Z,8.90
2023-05-10T06:22:57.741Z,8.81
2023-05-10T06:24:02.056Z,8.84
2023-05-10T06:25:06.477Z,8.89
2023-05-10T06:26:10.676Z,8.96
2023-05-10T06:27:15.063Z,8.89
2023-05-10T06:28:19.445Z,8.82
2023-05-10T06:29:23.701Z,8.90
2023-05-10T06:30:28.195Z,8.98
2023-05-10T06:31:32.481Z,8.93
2023-05-10T06:32:36.772Z,8.99
2023-05-10T06:33:41.042Z,8.83
2023-05-10T06:34:45.470Z,8.80
2023-05-10T06:35:49.741Z,8.87
2023-05-10T06:36:54.083Z,8.99
2023-05-10T06:37:58.406Z,8.97
2023-05-10T06:39:02.778Z,9.04
2023-05-10T06:40:07.192Z,9.03
2023-05-10T06:41:11.488Z,9.05
2023-05-10T06:42:18.841Z,9.06
2023-05-10T06:43:22.403Z,9.20
2023-05-10T06:44:26.678Z,9.27
2023-05-10T06:45:31.104Z,9.37
2023-05-10T06:46:35.475Z,9.26
2023-05-10T06:47:39.982Z,9.15
2023-05-10T06:48:44.169Z,9.17
2023-05-10T06:49:48.689Z,9.16
2023-05-10T06:50:53.048Z,9.33
2023-05-10T06:51:57.371Z,9.30
2023-05-10T06:53:01.749Z,9.27
2023-05-10T06:54:06.134Z,9.18
2023-05-10T06:55:10.506Z,9.32
2023-05-10T06:56:14.885Z,9.51
2023-05-10T06:57:30.647Z,9.64
2023-05-10T06:58:23.792Z,9.62
2023-05-10T06:59:28.273Z,9.69
2023-05-10T07:00:32.692Z,9.68
2023-05-10T07:01:36.995Z,9.73
2023-05-10T07:02:41.346Z,9.71
2023-05-10T07:03:51.685Z,9.70
2023-05-10T07:04:54.794Z,9.54
2023-05-10T07:05:58.975Z,9.66
2023-05-10T07:07:03.293Z,9.75
2023-05-10T07:08:07.820Z,9.90
2023-05-10T07:09:12.234Z,9.89
2023-05-10T07:10:16.618Z,9.97
2023-05-10T07:11:21.011Z,10.01
2023-05-10T07:12:25.393Z,9.89
2023-05-10T07:13:29.874Z,9.66
2023-05-10T07:14:34.046Z,9.72
2023-05-10T07:15:38.498Z,9.75
2023-05-10T07:16:42.994Z,9.61
2023-05-10T07:17:47.279Z,9.60
2023-05-10T07:18:51.656Z,9.62
2023-05-10T07:19:56.037Z,9.69
2023-05-10T07:21:00.544Z,9.81
2023-05-10T07:22:04.754Z,9.74
2023-05-10T07:23:09.085Z,9.72
2023-05-10T07:24:13.476Z,9.77
2023-05-10T07:25:18.135Z,9.81
2023-05-10T07:26:22.236Z,9.66
2023-05-10T07:27:26.634Z,9.60
2023-05-10T07:28:31.004Z,9.67
2023-05-10T07:29:35.447Z,9.81
2023-05-10T07:30:39.907Z,9.88
2023-05-10T07:31:44.177Z,9.99
2023-05-10T07:32:48.598Z,9.75
2023-05-10T07:33:53.003Z,9.80
2023-05-10T07:34:57.354Z,9.77
2023-05-10T07:36:01.704Z,9.85
2023-05-10T07:37:06.010Z,9.89
2023-05-10T07:38:10.376Z,9.98
2023-05-10T07:39:18.643Z,10.05
2023-05-10T07:40:19.152Z,10.07
2023-05-10T07:41:23.594Z,10.00
2023-05-10T07:42:28.013Z,10.02
2023-05-10T07:43:32.348Z,10.16
2023-05-10T07:44:36.763Z,10.23
2023-05-10T07:45:41.165Z,10.30
2023-05-10T07:46:45.445Z,10.39
2023-05-10T07:47:49.879Z,10.34
2023-05-10T07:48:54.279Z,10.24
2023-05-10T07:49:58.604Z,10.29
2023-05-10T07:51:02.894Z,10.39
2023-05-10T07:52:07.267Z,10.33
2023-05-10T07:53:11.708Z,10.21
2023-05-10T07:54:16.098Z,10.08
2023-05-10T07:55:20.551Z,10.20
2023-05-10T07:56:24.972Z,10.17
2023-05-10T07:57:29.240Z,10.28
2023-05-10T07:58:33.672Z,10.35
2023-05-10T07:59:38.041Z,10.36
2023-05-10T08:00:45.481Z,10.40
2023-05-10T08:01:48.929Z,10.36
2023-05-10T08:02:53.412Z,10.35
2023-05-10T08:03:57.761Z,10.26
2023-05-10T08:05:02.087Z,10.36
2023-05-10T08:06:06.510Z,10.45
2023-05-10T08:07:10.998Z,10.38
2023-05-10T08:08:15.255Z,10.47
2023-05-10T08:09:19.638Z,10.50
2023-05-10T08:10:23.940Z,10.49
2023-05-10T08:11:28.386Z,10.35
2023-05-10T08:12:32.726Z,10.46
2023-05-10T08:13:37.136Z,10.43
2023-05-10T08:14:41.437Z,10.43
2023-05-10T08:15:45.776Z,10.51
2023-05-10T08:16:50.105Z,10.53
2023-05-10T08:17:54.704Z,10.49
2023-05-10T08:18:58.989Z,10.39
2023-05-10T08:20:03.266Z,10.52
2023-05-10T08:21:07.563Z,10.64
2023-05-10T08:22:12.012Z,10.79
2023-05-10T08:23:16.350Z,10.69
2023-05-10T08:24:20.797Z,10.52
2023-05-10T08:25:25.072Z,10.51
2023-05-10T08:26:29.547Z,10.46
2023-05-10T08:27:33.892Z,10.48
2023-05-10T08:28:38.400Z,10.37
2023-05-10T08:29:50.103Z,10.29
2023-05-10T08:30:46.991Z,10.33
2023-05-10T08:31:51.424Z,10.38
2023-05-10T08:32:55.821Z,10.43
2023-05-10T08:34:00.194Z,10.32
2023-05-10T08:35:04.616Z,10.30
2023-05-10T08:36:09.125Z,10.37
2023-05-10T08:37:16.508Z,10.33
2023-05-10T08:38:20.041Z,10.44
2023-05-10T08:39:30.261Z,10.53
2023-05-10T08:40:28.691Z,10.58
2023-05-10T08:41:33.069Z,10.62
2023-05-10T08:42:37.503Z,10.77
2023-05-10T08:43:42.001Z,10.68
2023-05-10T08:44:48.865Z,10.79
2023-05-10T08:45:50.803Z,10.80
2023-05-10T08:46:55.219Z,10.77
2023-05-10T08:47:59.472Z,10.74
2023-05-10T08:49:03.888Z,10.71
2023-05-10T08:50:08.217Z,10.65
2023-05-10T08:51:12.558Z,10.62
2023-05-10T08:52:16.935Z,10.69
2023-05-10T08:53:21.312Z,10.52
2023-05-10T08:54:25.719Z,10.72
2023-05-10T08:55:30.012Z,10.92
2023-05-10T08:56:34.346Z,10.63
2023-05-10T08:57:38.861Z,10.59
2023-05-10T08:58:43.209Z,10.66
2023-05-10T08:59:47.568Z,10.75
2023-05-10T09:00:51.972Z,10.83
2023-05-10T09:01:56.249Z,10.71
2023-05-10T09:03:00.682Z,10.71
2023-05-10T09:04:05.233Z,10.54
2023-05-10T09:05:09.451Z,10.51
2023-05-10T09:06:13.750Z,10.43
2023-05-10T09:07:18.190Z,10.65
2023-05-10T09:08:22.519Z,10.79
2023-05-10T09:09:26.836Z,10.96
2023-05-10T09:10:31.317Z,11.06
2023-05-10T09:11:35.530Z,11.15
2023-05-10T09:12:39.897Z,11.07
2023-05-10T09:13:44.251Z,10.98
2023-05-10T09:14:48.628Z,10.89
2023-05-10T09:15:53.037Z,10.84
2023-05-10T09:16:57.441Z,10.89
2023-05-10T09:18:01.783Z,11.00
2023-05-10T09:19:06.151Z,11.02
2023-05-10T09:20:10.626Z,10.94
2023-05-10T09:21:14.911Z,10.97
2023-05-10T09:22:19.232Z,11.00
2023-05-10T09:23:23.589Z,10.95
2023-05-10T09:24:27.978Z,10.94
2023-05-10T09:25:32.415Z,10.92
2023-05-10T09:26:36.993Z,11.05
2023-05-10T09:27:41.138Z,11.10
2023-05-10T09:28:45.580Z,11.11
2023-05-10T09:30:03.978Z,11.13
2023-05-10T09:31:07.355Z,11.27
2023-05-10T09:32:11.727Z,11.41
2023-05-10T09:33:29.946Z,11.40
2023-05-10T09:34:33.200Z,11.32
2023-05-10T09:35:37.733Z,11.37
2023-05-10T09:36:42.101Z,11.43
2023-05-10T09:37:46.521Z,11.44
2023-05-10T09:38:50.847Z,11.36
2023-05-10T09:39:55.269Z,11.19
2023-05-10T09:40:59.546Z,10.99
2023-05-10T09:42:03.927Z,11.17
2023-05-10T09:43:08.458Z,11.29
2023-05-10T09:44:12.808Z,11.39
2023-05-10T09:45:17.384Z,11.41
2023-05-10T09:46:21.539Z,11.27
2023-05-10T09:47:25.987Z,11.18
2023-05-10T09:48:30.210Z,11.24
2023-05-10T09:49:34.619Z,11.21
2023-05-10T09:50:38.972Z,11.13
2023-05-10T09:51:43.327Z,11.07
2023-05-10T09:52:47.760Z,11.15
2023-05-10T09:53:52.187Z,11.37
2023-05-10T09:54:56.502Z,11.39
2023-05-10T09:56:00.964Z,11.29
2023-05-10T09:57:05.360Z,11.34
2023-05-10T09:58:09.880Z,11.25
2023-05-10T09:59:14.218Z,11.18
2023-05-10T10:01:45.677Z,11.28
2023-05-10T10:02:50.167Z,11.35
2023-05-10T10:03:54.396Z,11.39
2023-05-10T10:04:58.912Z,11.27
2023-05-10T10:06:03.191Z,11.20
2023-05-10T10:07:21.898Z,11.25
2023-05-10T10:08:25.196Z,11.35
2023-05-10T10:09:29.638Z,11.21
2023-05-10T10:10:36.961Z,11.33
2023-05-10T10:11:40.395Z,11.24
2023-05-10T10:12:44.804Z,11.18
2023-05-10T10:13:49.158Z,11.23
2023-05-10T10:14:53.481Z,11.02
2023-05-10T10:15:57.905Z,11.03
2023-05-10T10:18:06.750Z,10.95
2023-05-10T10:19:11.267Z,10.98
2023-05-10T10:20:16.010Z,11.06
2023-05-10T10:21:20.047Z,11.08
2023-05-10T10:22:24.437Z,11.14
2023-05-10T10:23:28.769Z,11.16
2023-05-10T10:24:33.138Z,11.16
2023-05-10T10:25:37.390Z,11.17
2023-05-10T10:26:55.844Z,11.09
2023-05-10T10:27:59.383Z,11.04
2023-05-10T10:29:03.707Z,10.90
2023-05-10T10:30:08.062Z,11.05
2023-05-10T10:31:26.566Z,11.06
2023-05-10T10:32:30.036Z,11.05
2023-05-10T10:33:40.298Z,11.13
2023-05-10T10:34:43.296Z,11.25
2023-05-10T10:35:47.771Z,11.25
2023-05-10T10:36:52.090Z,11.18
2023-05-10T10:37:56.465Z,11.11
2023-05-10T10:39:00.854Z,11.02
2023-05-10T10:40:05.350Z,11.14
2023-05-10T10:41:09.720Z,11.17
2023-05-10T10:42:14.036Z,11.22
2023-05-10T10:43:18.508Z,11.15
2023-05-10T10:44:22.862Z,11.24
2023-05-10T10:45:27.284Z,11.27
2023-05-10T10:46:31.741Z,11.32
2023-05-10T10:47:36.184Z,11.40
2023-05-10T10:48:40.579Z,11.42
2023-05-10T10:49:47.904Z,11.40
2023-05-10T10:50:51.363Z,11.46
2023-05-10T10:51:55.799Z,11.37
2023-05-10T10:53:00.392Z,11.48
2023-05-10T10:54:07.746Z,11.46
2023-05-10T10:55:11.258Z,11.60
2023-05-10T10:56:15.715Z,11.71
2023-05-10T10:57:20.051Z,11.75
2023-05-10T10:58:24.568Z,11.57
2023-05-10T10:59:29.112Z,11.72
2023-05-10T11:02:01.278Z,11.65
2023-05-10T11:03:05.555Z,11.80
2023-05-10T11:04:09.998Z,11.88
2023-05-10T11:05:14.608Z,11.76
2023-05-10T11:06:18.888Z,11.97
2023-05-10T11:07:23.306Z,11.73
2023-05-10T11:08:27.700Z,11.73
2023-05-10T11:09:32.112Z,11.52
2023-05-10T11:10:36.449Z,11.60
2023-05-10T11:11:46.909Z,11.78
2023-05-10T11:13:04.072Z,11.80
2023-05-10T11:14:07.579Z,11.86
2023-05-10T11:15:11.939Z,11.58
2023-05-10T11:16:16.407Z,11.57
2023-05-10T11:17:20.777Z,11.65
2023-05-10T11:18:25.154Z,11.71
2023-05-10T11:19:29.476Z,11.63
2023-05-10T11:20:33.996Z,11.67
2023-05-10T11:21:38.502Z,11.74
2023-05-10T11:22:42.976Z,11.89
2023-05-10T11:23:50.313Z,11.94
2023-05-10T11:24:53.937Z,11.99
2023-05-10T11:25:58.264Z,11.74
2023-05-10T11:27:02.779Z,11.72
2023-05-10T11:28:07.207Z,11.77
2023-05-10T11:29:11.650Z,11.95
2023-05-10T11:30:19.502Z,12.12
2023-05-10T11:31:22.717Z,12.12
2023-05-10T11:32:26.994Z,11.95
2023-05-10T11:33:31.438Z,11.97
2023-05-10T11:34:35.878Z,11.99
2023-05-10T11:35:42.987Z,12.15
2023-05-10T11:36:44.783Z,12.23
2023-05-10T11:37:49.197Z,12.25
2023-05-10T11:38:53.573Z,12.16
2023-05-10T11:40:12.089Z,12.07
2023-05-10T11:41:15.635Z,12.10
2023-05-10T11:42:19.899Z,11.99
2023-05-10T11:43:24.361Z,12.05
2023-05-10T11:44:28.711Z,12.22
2023-05-10T11:45:33.213Z,12.17
2023-05-10T11:46:37.534Z,12.43
2023-05-10T11:47:42.909Z,12.62
2023-05-10T11:48:52.437Z,12.24
2023-05-10T11:49:55.460Z,12.45
2023-05-10T11:51:00.036Z,12.49
2023-05-10T11:52:04.421Z,12.44
2023-05-10T11:53:24.717Z,12.73
2023-05-10T11:54:26.227Z,12.57
2023-05-10T11:55:30.896Z,12.13
2023-05-10T11:56:38.321Z,12.26
2023-05-10T11:57:41.784Z,12.32
2023-05-10T11:58:46.285Z,12.30
2023-05-10T11:59:50.675Z,12.37
2023-05-10T12:00:55.187Z,12.25
2023-05-10T12:02:13.619Z,12.09
2023-05-10T12:03:16.925Z,12.09
2023-05-10T12:04:21.501Z,12.11
2023-05-10T12:05:25.544Z,12.15
2023-05-10T12:06:30.019Z,12.27
2023-05-10T12:07:34.373Z,12.29
2023-05-10T12:08:38.754Z,12.58
2023-05-10T12:09:44.349Z,12.84
2023-05-10T12:10:47.770Z,13.04
2023-05-10T12:11:52.171Z,13.15
2023-05-10T12:12:56.559Z,13.27
2023-05-10T12:14:00.974Z,13.31
2023-05-10T12:15:05.411Z,13.04
2023-05-10T12:16:09.891Z,13.04
2023-05-10T12:17:28.285Z,13.07
2023-05-10T12:18:31.779Z,13.04
2023-05-10T12:19:36.065Z,13.16
2023-05-10T12:22:08.050Z,13.15
2023-05-10T12:23:12.507Z,12.83
2023-05-10T12:24:16.923Z,13.14
2023-05-10T12:25:21.291Z,13.23
2023-05-10T12:26:25.798Z,13.11
2023-05-10T12:27:30.237Z,13.10
2023-05-10T12:28:48.593Z,12.97
2023-05-10T12:29:52.099Z,13.06
2023-05-10T12:30:56.434Z,13.30
2023-05-10T12:32:01.153Z,13.24
2023-05-10T12:33:19.454Z,13.24
2023-05-10T12:34:22.945Z,13.20
2023-05-10T12:35:27.293Z,13.19
2023-05-10T12:36:31.690Z,13.32
2023-05-10T12:37:36.134Z,13.47
2023-05-10T12:38:40.533Z,13.34
2023-05-10T12:39:45.099Z,13.47
2023-05-10T12:40:49.388Z,13.16
2023-05-10T12:41:59.766Z,13.11
2023-05-10T12:43:02.939Z,13.04
2023-05-10T12:44:07.247Z,12.98
2023-05-10T12:45:11.736Z,13.07
2023-05-10T12:46:16.225Z,12.96
2023-05-10T12:47:20.561Z,12.90
2023-05-10T12:48:24.947Z,13.00
2023-05-10T12:49:29.459Z,13.10
2023-05-10T12:50:36.797Z,13.22
2023-05-10T12:51:40.332Z,13.12
2023-05-10T12:52:44.753Z,13.22
2023-05-10T12:53:49.672Z,13.33
2023-05-10T12:54:53.569Z,13.48
2023-05-10T12:55:58.054Z,13.64
2023-05-10T12:57:02.417Z,13.68
2023-05-10T12:58:06.909Z,13.68
2023-05-10T12:59:11.257Z,13.49
2023-05-10T13:00:15.843Z,13.70
2023-05-10T13:01:20.255Z,13.49
2023-05-10T13:02:24.709Z,13.49
2023-05-10T13:03:29.099Z,13.20
2023-05-10T13:06:00.991Z,13.39
2023-05-10T13:07:19.364Z,13.35
2023-05-10T13:08:22.672Z,13.45
2023-05-10T13:09:27.137Z,13.27
2023-05-10T13:10:31.478Z,13.28
2023-05-10T13:11:49.864Z,13.40
2023-05-10T13:12:53.368Z,13.49
2023-05-10T13:13:57.667Z,13.30
2023-05-10T13:15:02.033Z,13.26
2023-05-10T13:16:06.363Z,13.15
2023-05-10T13:17:10.874Z,13.08
2023-05-10T13:18:21.402Z,13.11
2023-05-10T13:19:24.397Z,13.13
2023-05-10T13:20:42.892Z,12.91
2023-05-10T13:21:46.373Z,13.02
2023-05-10T13:22:52.206Z,13.09
2023-05-10T13:23:55.119Z,13.10
2023-05-10T13:25:13.568Z,13.08
2023-05-10T13:26:17.030Z,12.95
2023-05-10T13:27:21.379Z,12.92
2023-05-10T13:28:25.820Z,12.91
2023-05-10T13:29:45.311Z,12.90
2023-05-10T13:30:47.567Z,12.91
2023-05-10T13:33:19.476Z,12.85
2023-05-10T13:34:23.809Z,12.75
2023-05-10T13:35:28.363Z,12.79
2023-05-10T13:36:32.748Z,12.68
2023-05-10T13:37:40.179Z,12.64
2023-05-10T13:38:57.692Z,12.68
2023-05-10T13:40:00.745Z,12.57
2023-05-10T13:41:05.184Z,12.64
2023-05-10T13:42:09.553Z,12.75
2023-05-10T13:43:14.039Z,12.85
2023-05-10T13:44:18.522Z,12.65
2023-05-10T13:45:22.897Z,12.59
2023-05-10T13:46:27.391Z,12.71
2023-05-10T13:47:31.889Z,12.61
2023-05-10T13:48:38.709Z,12.61
2023-05-10T13:49:40.607Z,12.60
2023-05-10T13:50:59.057Z,12.68
2023-05-10T13:52:02.513Z,12.81
2023-05-10T13:53:12.917Z,12.68
2023-05-10T13:54:30.161Z,12.69
2023-05-10T13:55:33.385Z,12.63
2023-05-10T13:56:37.839Z,12.57
2023-05-10T13:57:42.190Z,12.68
2023-05-10T13:59:00.755Z,12.68
2023-05-10T14:00:04.293Z,12.66
2023-05-10T14:01:08.670Z,12.80
2023-05-10T14:02:13.070Z,12.96
2023-05-10T14:03:31.489Z,12.94
2023-05-10T14:04:34.637Z,13.05
2023-05-10T14:05:39.004Z,13.05
2023-05-10T14:06:43.468Z,12.89
2023-05-10T14:08:01.878Z,12.83
2023-05-10T14:09:05.485Z,12.89
2023-05-10T14:10:15.808Z,12.89
2023-05-10T14:11:33.007Z,12.81
2023-05-10T14:12:36.413Z,12.74
2023-05-10T14:13:40.744Z,12.74
2023-05-10T14:14:59.196Z,12.71
2023-05-10T14:16:02.755Z,12.70
2023-05-10T14:17:20.987Z,12.61
2023-05-10T14:18:30.453Z,12.66
2023-05-10T14:19:33.491Z,12.64
2023-05-10T14:20:51.883Z,12.76